Time;durP1;ratioP1;P1;durP2;ratioP2;P2;SDS_P1;SDS_P2;PMS_P1;PMS_P2;Temp;Humidity;BMP_temperature;BMP_pressure;BME280_temperature;BME280_humidity;BME280_pressure;Samples;Min_cycle;Max_cycle;Signal;HPM_P1;HPM_P2
2023/01/08 00:00:16;;;;;;;1.30;1.20;;;12.00;98.20;;;;;;5114752;28;20989;-60
2023/01/08 00:02:43;;;;;;;2.70;1.00;;;12.00;98.20;;;;;;5114645;28;20472;-59
2023/01/08 00:05:11;;;;;;;1.70;1.47;;;12.00;98.20;;;;;;5114780;28;20439;-59
2023/01/08 00:07:39;;;;;;;1.90;1.80;;;11.90;98.20;;;;;;5114829;28;20475;-59
2023/01/08 00:10:06;;;;;;;2.80;1.73;;;11.90;98.60;;;;;;5114507;28;20788;-59
2023/01/08 00:12:34;;;;;;;2.10;1.30;;;11.90;98.30;;;;;;5114704;28;20863;-60
2023/01/08 00:15:01;;;;;;;4.80;1.97;;;11.90;98.30;;;;;;5114534;28;20563;-60
2023/01/08 00:17:27;;;;;;;1.50;1.40;;;11.90;98.30;;;;;;5114607;28;20440;-60
2023/01/08 00:19:54;;;;;;;2.43;2.10;;;12.00;98.20;;;;;;5114525;28;20443;-59
2023/01/08 00:22:20;;;;;;;3.03;1.97;;;11.90;98.10;;;;;;5114411;28;20484;-60
2023/01/08 00:24:48;;;;;;;6.00;1.50;;;11.90;98.20;;;;;;5114537;28;20428;-60
2023/01/08 00:27:15;;;;;;;2.13;1.73;;;11.90;98.20;;;;;;5115215;28;20789;-60
2023/01/08 00:29:42;;;;;;;2.07;1.50;;;11.90;98.10;;;;;;5114287;28;20455;-60
2023/01/08 00:32:09;;;;;;;3.90;1.90;;;11.90;98.00;;;;;;5112953;28;20969;-60
2023/01/08 00:34:35;;;;;;;2.87;1.60;;;11.90;98.00;;;;;;5114897;28;20454;-59
2023/01/08 00:37:02;;;;;;;2.67;1.53;;;12.00;98.10;;;;;;5113944;28;20943;-59
2023/01/08 00:39:29;;;;;;;4.00;1.70;;;12.00;98.00;;;;;;5114468;28;20462;-59
2023/01/08 00:41:57;;;;;;;5.83;1.70;;;12.00;97.90;;;;;;5114103;28;20500;-60
2023/01/08 00:44:24;;;;;;;3.53;1.57;;;12.00;97.90;;;;;;5114161;28;20575;-60
2023/01/08 00:46:50;;;;;;;3.97;1.73;;;12.00;97.80;;;;;;5113701;28;20946;-60
2023/01/08 00:49:17;;;;;;;3.70;1.63;;;12.00;97.90;;;;;;5113999;28;20451;-60
2023/01/08 00:51:44;;;;;;;3.03;1.53;;;12.00;98.00;;;;;;5113562;28;20870;-59
2023/01/08 00:54:11;;;;;;;2.30;2.00;;;12.00;97.90;;;;;;5113950;28;20515;-59
2023/01/08 00:56:38;;;;;;;2.60;2.20;;;12.10;97.80;;;;;;5113840;28;20486;-60
2023/01/08 00:59:06;;;;;;;5.80;2.40;;;12.10;97.80;;;;;;5113821;28;20462;-59
2023/01/08 01:01:32;;;;;;;4.57;1.87;;;12.10;97.70;;;;;;5113827;28;20462;-59
2023/01/08 01:03:59;;;;;;;3.93;1.77;;;12.10;97.60;;;;;;5113471;28;20950;-60
2023/01/08 01:06:26;;;;;;;2.30;1.90;;;12.10;97.60;;;;;;5113835;28;20451;-60
2023/01/08 01:08:53;;;;;;;4.13;1.90;;;12.20;97.60;;;;;;5113824;28;20438;-60
2023/01/08 01:11:21;;;;;;;2.63;2.07;;;12.20;97.60;;;;;;5113690;28;20548;-60
2023/01/08 01:13:49;;;;;;;3.87;2.20;;;12.10;97.50;;;;;;5113777;28;20445;-60
2023/01/08 01:16:17;;;;;;;2.30;1.50;;;12.20;97.50;;;;;;5113682;28;20493;-60
2023/01/08 01:18:43;;;;;;;3.70;2.00;;;12.20;97.40;;;;;;5114586;28;20446;-60
2023/01/08 01:21:11;;;;;;;4.33;2.27;;;12.20;97.50;;;;;;5113604;28;20520;-60
2023/01/08 01:23:38;;;;;;;1.87;1.63;;;12.20;97.30;;;;;;5113740;28;20851;-60
2023/01/08 01:26:05;;;;;;;3.00;1.90;;;12.20;97.40;;;;;;5113694;28;20451;-60
2023/01/08 01:28:32;;;;;;;3.53;3.00;;;12.20;97.40;;;;;;5113357;28;20950;-60
2023/01/08 01:30:59;;;;;;;2.93;1.80;;;12.20;97.40;;;;;;5113484;28;20443;-60
2023/01/08 01:33:27;;;;;;;2.43;2.13;;;12.20;97.40;;;;;;5113258;28;20443;-59
2023/01/08 01:36:01;;;;;;;2.20;1.70;;;12.30;97.50;;;;;;5113628;28;20482;-60
2023/01/08 01:38:27;;;;;;;3.57;2.30;;;12.20;97.40;;;;;;5113639;28;20450;-60
2023/01/08 01:40:54;;;;;;;3.50;1.63;;;12.20;97.40;;;;;;5113131;28;20461;-60
2023/01/08 01:43:34;;;;;;;3.93;1.97;;;12.20;97.40;;;;;;5115824;28;20525;-60
2023/01/08 01:46:02;;;;;;;4.43;2.13;;;12.20;97.40;;;;;;5117218;28;20914;-60
2023/01/08 01:48:30;;;;;;;3.00;1.80;;;12.20;97.30;;;;;;5117411;28;20456;-60
2023/01/08 01:50:57;;;;;;;4.13;2.20;;;12.20;97.20;;;;;;5117776;28;20938;-60
2023/01/08 01:53:26;;;;;;;2.13;1.93;;;12.30;97.20;;;;;;5117319;28;20453;-60
2023/01/08 01:55:54;;;;;;;4.70;2.40;;;12.30;97.10;;;;;;5117211;28;20477;-60
2023/01/08 01:58:23;;;;;;;4.47;2.47;;;12.30;97.10;;;;;;5117325;28;20473;-59
2023/01/08 02:00:52;;;;;;;3.60;1.90;;;12.30;97.00;;;;;;5117068;28;20454;-60
2023/01/08 02:03:22;;;;;;;4.20;1.90;;;12.30;96.80;;;;;;5117151;28;20453;-59
2023/01/08 02:05:59;;;;;;;2.70;2.10;;;12.30;96.90;;;;;;5117199;28;20443;-60
2023/01/08 02:08:32;;;;;;;5.50;2.07;;;12.20;97.00;;;;;;5117087;28;20442;-60
2023/01/08 02:11:07;;;;;;;4.27;2.03;;;12.30;96.80;;;;;;5116936;28;20442;-60
2023/01/08 02:13:37;;;;;;;5.33;2.57;;;12.30;96.80;;;;;;5117305;28;20445;-60
2023/01/08 02:16:12;;;;;;;3.20;1.83;;;12.30;96.70;;;;;;5116817;28;20481;-60
2023/01/08 02:18:46;;;;;;;5.10;2.60;;;12.30;96.70;;;;;;5116878;28;20438;-60
2023/01/08 02:21:18;;;;;;;3.30;2.33;;;12.30;96.50;;;;;;5116673;28;20466;-60
2023/01/08 02:23:49;;;;;;;3.83;2.20;;;12.30;96.60;;;;;;5116874;28;20446;-60
2023/01/08 02:26:21;;;;;;;4.77;2.10;;;12.30;96.60;;;;;;5116888;28;20431;-60
2023/01/08 02:28:53;;;;;;;2.60;1.97;;;12.30;96.60;;;;;;5116834;28;20431;-60
2023/01/08 02:31:22;;;;;;;3.33;1.90;;;12.30;96.60;;;;;;5116750;28;20477;-60
2023/01/08 02:33:49;;;;;;;1.57;1.33;;;12.30;96.60;;;;;;5116618;28;20563;-60
2023/01/08 02:36:29;;;;;;;4.43;1.93;;;12.30;96.60;;;;;;5116327;28;20462;-60
2023/01/08 02:39:21;;;;;;;3.20;1.90;;;12.30;96.70;;;;;;5116235;28;20898;-60
2023/01/08 02:42:12;;;;;;;3.60;1.87;;;12.30;96.70;;;;;;5116416;28;20519;-60
2023/01/08 02:44:50;;;;;;;2.60;1.57;;;12.30;96.70;;;;;;5116525;28;20424;-61
2023/01/08 02:47:25;;;;;;;2.20;1.70;;;12.20;96.70;;;;;;5116487;28;20423;-60
2023/01/08 02:50:01;;;;;;;2.37;1.70;;;12.20;96.80;;;;;;5116129;28;20762;-60
2023/01/08 02:52:32;;;;;;;3.20;1.80;;;12.20;96.70;;;;;;5116361;28;20488;-60
2023/01/08 02:55:01;;;;;;;2.63;2.43;;;12.20;96.80;;;;;;5115396;28;20438;-60
2023/01/08 02:57:33;;;;;;;2.80;2.00;;;12.20;97.10;;;;;;5115971;28;20857;-60
2023/01/08 02:59:59;;;;;;;1.80;1.50;;;12.20;96.70;;;;;;5116205;28;20611;-61
2023/01/08 03:02:31;;;;;;;2.53;1.93;;;12.20;96.70;;;;;;5116258;28;20470;-61
2023/01/08 03:05:06;;;;;;;2.20;2.07;;;12.20;96.70;;;;;;5116153;28;20438;-60
2023/01/08 03:07:33;;;;;;;2.67;2.47;;;12.20;96.80;;;;;;5116223;28;20430;-60
2023/01/08 03:10:00;;;;;;;2.33;1.73;;;12.20;96.80;;;;;;5116024;28;20511;-60
2023/01/08 03:12:40;;;;;;;4.23;1.63;;;12.20;96.90;;;;;;5115688;28;20466;-60
2023/01/08 03:15:09;;;;;;;1.77;1.60;;;12.20;97.00;;;;;;5116124;28;20435;-61
2023/01/08 03:17:39;;;;;;;1.70;1.60;;;12.10;96.90;;;;;;5115814;28;20489;-61
2023/01/08 03:20:10;;;;;;;1.70;1.60;;;12.10;97.10;;;;;;5115489;28;20800;-61
2023/01/08 03:22:40;;;;;;;1.93;1.83;;;12.10;97.20;;;;;;5115719;28;20470;-60
2023/01/08 03:25:08;;;;;;;1.47;1.37;;;12.10;97.30;;;;;;5115653;28;20454;-60
2023/01/08 03:27:41;;;;;;;3.40;1.93;;;12.10;97.30;;;;;;5115746;28;20435;-60
2023/01/08 03:30:11;;;;;;;1.40;1.30;;;12.10;97.30;;;;;;5115651;28;20424;-61
2023/01/08 03:32:40;;;;;;;2.80;1.87;;;12.10;97.30;;;;;;5115414;28;20807;-60
2023/01/08 03:35:11;;;;;;;3.90;1.43;;;12.00;97.10;;;;;;5115644;28;20456;-60
2023/01/08 03:37:42;;;;;;;1.67;1.33;;;12.00;97.20;;;;;;5115494;28;20482;-60
2023/01/08 03:40:13;;;;;;;4.70;1.60;;;12.00;97.10;;;;;;5115314;28;20835;-60
2023/01/08 03:42:42;;;;;;;1.67;1.50;;;12.10;97.20;;;;;;5115296;28;20479;-60
2023/01/08 03:45:09;;;;;;;1.53;1.40;;;12.00;97.00;;;;;;5115525;28;20538;-60
2023/01/08 03:47:38;;;;;;;3.00;1.47;;;12.10;97.10;;;;;;5115413;28;20444;-60
2023/01/08 03:50:09;;;;;;;2.43;1.20;;;12.00;96.90;;;;;;5115148;28;20435;-60
2023/01/08 03:52:35;;;;;;;1.53;1.20;;;12.10;97.00;;;;;;5115880;28;20486;-60
2023/01/08 03:55:03;;;;;;;1.13;1.03;;;12.10;96.90;;;;;;5116270;28;20469;-60
2023/01/08 03:57:29;;;;;;;2.17;1.10;;;12.10;96.90;;;;;;5115882;28;20493;-60
2023/01/08 03:59:57;;;;;;;3.33;1.20;;;12.10;96.80;;;;;;5116035;28;20459;-60
2023/01/08 04:02:24;;;;;;;1.33;1.10;;;12.10;96.80;;;;;;5115460;28;20841;-60
2023/01/08 04:04:51;;;;;;;0.97;0.87;;;12.10;96.80;;;;;;5116729;28;20440;-60
2023/01/08 04:07:17;;;;;;;1.77;1.00;;;12.10;96.80;;;;;;5116915;28;20454;-60
2023/01/08 04:09:44;;;;;;;2.63;1.13;;;12.10;96.80;;;;;;5115793;28;20449;-60
2023/01/08 04:12:11;;;;;;;2.43;1.40;;;12.10;96.90;;;;;;5114769;28;20466;-60
2023/01/08 04:14:37;;;;;;;2.80;1.10;;;12.00;97.00;;;;;;5114895;28;20453;-60
2023/01/08 04:17:05;;;;;;;1.97;1.27;;;12.10;96.90;;;;;;5115038;28;20491;-61
2023/01/08 04:19:32;;;;;;;3.80;1.33;;;12.00;97.10;;;;;;5115010;28;20446;-61
2023/01/08 04:21:59;;;;;;;2.30;0.73;;;12.10;97.20;;;;;;5114737;28;20462;-61
2023/01/08 04:24:25;;;;;;;0.83;0.80;;;12.10;97.20;;;;;;5114680;28;20447;-60
2023/01/08 04:26:52;;;;;;;1.17;0.80;;;12.10;96.70;;;;;;5114661;28;20453;-61
2023/01/08 04:29:19;;;;;;;1.70;0.90;;;12.10;96.50;;;;;;5114461;28;20448;-60
2023/01/08 04:31:45;;;;;;;2.37;0.90;;;12.10;96.30;;;;;;5114732;28;20463;-60
2023/01/08 04:34:14;;;;;;;0.97;0.80;;;12.00;96.20;;;;;;5114352;28;20461;-60
2023/01/08 04:36:40;;;;;;;0.63;0.60;;;12.00;96.40;;;;;;5114225;28;20490;-60
2023/01/08 04:39:08;;;;;;;1.60;0.80;;;12.00;96.50;;;;;;5114046;28;20450;-61
2023/01/08 04:41:34;;;;;;;0.67;0.67;;;12.00;96.40;;;;;;5114134;28;20474;-60
2023/01/08 04:44:01;;;;;;;0.73;0.67;;;12.00;96.50;;;;;;5114345;28;20454;-60
2023/01/08 04:46:28;;;;;;;1.53;0.60;;;12.00;96.40;;;;;;5114224;28;20463;-60
2023/01/08 04:48:54;;;;;;;1.20;0.60;;;12.00;96.40;;;;;;5115011;28;20435;-60
2023/01/08 04:51:24;;;;;;;2.33;0.93;;;11.90;96.50;;;;;;5114266;28;20473;-60
2023/01/08 04:53:51;;;;;;;1.90;0.60;;;12.00;96.50;;;;;;5114222;28;20459;-61
2023/01/08 04:56:18;;;;;;;1.63;1.20;;;12.00;96.50;;;;;;5113957;28;20490;-60
2023/01/08 04:58:45;;;;;;;2.53;1.00;;;12.00;96.60;;;;;;5114129;28;20460;-60
2023/01/08 05:01:13;;;;;;;2.10;0.80;;;11.90;96.30;;;;;;5113992;28;20467;-60
2023/01/08 05:03:40;;;;;;;1.03;0.93;;;11.90;96.10;;;;;;5113898;28;20450;-60
2023/01/08 05:06:07;;;;;;;1.80;0.80;;;11.90;96.00;;;;;;5113943;28;20443;-60
2023/01/08 05:08:35;;;;;;;0.90;0.70;;;12.00;95.90;;;;;;5113575;28;20443;-60
2023/01/08 05:11:03;;;;;;;1.53;1.13;;;11.90;95.80;;;;;;5113725;28;20458;-60
2023/01/08 05:13:30;;;;;;;3.07;0.70;;;11.90;96.00;;;;;;5113791;28;20450;-60
2023/01/08 05:15:59;;;;;;;0.93;0.60;;;11.90;95.90;;;;;;5113460;28;20447;-60
2023/01/08 05:18:25;;;;;;;1.63;0.83;;;11.80;96.10;;;;;;5116019;28;20961;-60
2023/01/08 05:20:52;;;;;;;1.43;0.80;;;11.90;96.10;;;;;;5117974;28;20454;-60
2023/01/08 05:23:19;;;;;;;2.73;0.83;;;11.90;96.10;;;;;;5117968;28;20435;-60
2023/01/08 05:25:47;;;;;;;1.37;0.70;;;11.90;96.20;;;;;;5117617;28;20948;-60
2023/01/08 05:28:14;;;;;;;1.87;0.80;;;11.80;96.10;;;;;;5117832;28;20451;-60
2023/01/08 05:30:40;;;;;;;3.73;0.80;;;11.80;96.20;;;;;;5117907;28;20458;-60
2023/01/08 05:33:07;;;;;;;1.30;0.80;;;11.80;96.30;;;;;;5117429;28;20463;-60
2023/01/08 05:35:34;;;;;;;1.37;0.60;;;11.80;96.40;;;;;;5117872;28;20790;-60
2023/01/08 05:38:00;;;;;;;1.10;0.63;;;11.80;96.50;;;;;;5117715;28;20483;-60
2023/01/08 05:40:27;;;;;;;1.60;0.80;;;11.80;96.50;;;;;;5117439;28;20459;-60
2023/01/08 05:42:55;;;;;;;0.63;0.63;;;11.80;96.50;;;;;;5117661;28;20494;-61
2023/01/08 05:45:22;;;;;;;2.70;0.60;;;11.70;96.60;;;;;;5117715;28;20446;-60
2023/01/08 05:47:48;;;;;;;1.10;0.70;;;11.80;96.70;;;;;;5117323;28;20439;-60
2023/01/08 05:50:15;;;;;;;2.50;0.90;;;11.70;96.80;;;;;;5117494;28;20504;-60
2023/01/08 05:52:42;;;;;;;1.50;0.77;;;11.70;96.80;;;;;;5117435;28;20835;-60
2023/01/08 05:55:09;;;;;;;1.67;1.27;;;11.70;96.70;;;;;;5117559;28;20446;-60
2023/01/08 05:57:36;;;;;;;1.30;1.20;;;11.70;96.70;;;;;;5117101;28;21017;-61
2023/01/08 06:00:06;;;;;;;1.00;0.80;;;11.70;96.70;;;;;;5120419;27;20478;-60
2023/01/08 06:02:33;;;;;;;1.23;0.73;;;11.70;96.70;;;;;;5137878;27;20470;-60
2023/01/08 06:05:00;;;;;;;2.57;1.40;;;11.70;96.50;;;;;;5138002;27;20469;-61
2023/01/08 06:07:29;;;;;;;3.70;1.20;;;11.70;96.40;;;;;;5137629;27;20558;-61
2023/01/08 06:09:55;;;;;;;0.80;0.60;;;11.70;96.30;;;;;;5137608;27;20450;-61
2023/01/08 06:12:22;;;;;;;1.83;0.80;;;11.70;96.40;;;;;;5137696;27;20466;-60
2023/01/08 06:14:49;;;;;;;2.63;0.60;;;11.70;96.30;;;;;;5137160;27;20930;-60
2023/01/08 06:17:17;;;;;;;6.40;0.90;;;11.70;96.30;;;;;;5137535;27;20506;-61
2023/01/08 06:19:45;;;;;;;1.23;0.70;;;11.70;97.60;;;;;;5137538;27;20455;-60
2023/01/08 06:22:12;;;;;;;3.23;0.60;;;11.30;97.20;;;;;;5137282;27;20472;-60
2023/01/08 06:24:38;;;;;;;3.00;0.70;;;11.10;98.40;;;;;;5136946;27;20949;-60
2023/01/08 06:27:05;;;;;;;1.23;0.70;;;10.80;99.10;;;;;;5136779;27;20824;-60
2023/01/08 06:29:32;;;;;;;2.10;0.63;;;10.60;99.60;;;;;;5135929;27;20455;-60
2023/01/08 06:31:58;;;;;;;6.43;0.67;;;10.50;99.90;;;;;;5136596;27;20985;-60
2023/01/08 06:34:26;;;;;;;5.20;0.87;;;10.30;99.90;;;;;;5137221;27;20466;-60
2023/01/08 06:36:53;;;;;;;2.27;0.67;;;10.30;99.90;;;;;;5136933;27;20488;-60
2023/01/08 06:39:20;;;;;;;2.53;1.00;;;10.30;99.90;;;;;;5136879;27;20449;-60
2023/01/08 06:41:46;;;;;;;2.73;0.70;;;10.30;99.90;;;;;;5136771;27;20481;-60
2023/01/08 06:44:13;;;;;;;2.03;0.93;;;10.40;99.90;;;;;;5136984;27;20449;-60
2023/01/08 06:46:40;;;;;;;1.57;1.00;;;10.40;99.90;;;;;;5137049;27;20450;-60
2023/01/08 06:49:07;;;;;;;3.67;1.40;;;10.40;99.90;;;;;;5136867;27;20457;-60
2023/01/08 06:51:35;;;;;;;2.30;0.93;;;10.50;99.90;;;;;;5136492;27;20462;-61
2023/01/08 06:54:02;;;;;;;1.70;0.47;;;10.50;99.90;;;;;;5136826;27;20445;-61
2023/01/08 06:56:29;;;;;;;2.00;0.57;;;10.50;99.90;;;;;;5136699;27;20451;-61
2023/01/08 06:58:55;;;;;;;1.60;0.43;;;10.50;99.90;;;;;;5137272;27;20434;-61
2023/01/08 07:01:22;;;;;;;1.90;0.70;;;10.50;99.90;;;;;;5136565;27;20468;-61
2023/01/08 07:03:49;;;;;;;1.60;0.80;;;10.50;99.90;;;;;;5136673;27;20447;-60
2023/01/08 07:06:19;;;;;;;4.43;0.67;;;10.50;99.90;;;;;;5136491;27;20453;-60
2023/01/08 07:08:47;;;;;;;2.37;0.97;;;10.50;99.90;;;;;;5136457;27;20443;-60
2023/01/08 07:11:15;;;;;;;5.80;0.93;;;10.50;99.60;;;;;;5136331;27;20469;-60
2023/01/08 07:13:42;;;;;;;3.30;0.90;;;10.50;99.70;;;;;;5136077;27;20433;-60
2023/01/08 07:16:10;;;;;;;2.50;1.37;;;10.50;99.50;;;;;;5136071;27;20967;-60
2023/01/08 07:18:37;;;;;;;5.50;0.90;;;10.50;99.50;;;;;;5136276;27;20476;-60
2023/01/08 07:21:05;;;;;;;2.93;1.17;;;10.50;99.30;;;;;;5136173;27;20448;-60
2023/01/08 07:23:32;;;;;;;2.07;0.80;;;10.50;99.50;;;;;;5135783;27;20949;-60
2023/01/08 07:26:01;;;;;;;5.10;1.20;;;10.50;99.40;;;;;;5136127;27;20453;-60
2023/01/08 07:28:28;;;;;;;3.27;0.80;;;10.50;99.30;;;;;;5136158;27;20427;-60
2023/01/08 07:30:54;;;;;;;4.17;0.90;;;10.40;99.20;;;;;;5135968;27;20458;-60
2023/01/08 07:33:22;;;;;;;3.60;1.10;;;10.40;99.40;;;;;;5135410;27;20972;-60
2023/01/08 07:35:52;;;;;;;4.80;1.17;;;10.40;99.40;;;;;;5136041;27;20478;-60
2023/01/08 07:38:19;;;;;;;2.77;0.90;;;10.40;99.30;;;;;;5135541;27;20914;-60
2023/01/08 07:40:46;;;;;;;3.60;0.90;;;10.50;98.90;;;;;;5135151;27;20834;-60
2023/01/08 07:43:14;;;;;;;4.43;0.80;;;10.40;98.80;;;;;;5136389;27;20485;-60
2023/01/08 07:45:41;;;;;;;4.23;0.90;;;10.40;99.10;;;;;;5135757;27;20518;-60
2023/01/08 07:48:09;;;;;;;5.13;0.87;;;10.50;98.90;;;;;;5135464;27;20965;-61
2023/01/08 07:50:37;;;;;;;8.43;1.27;;;10.50;98.70;;;;;;5135644;27;20581;-60
2023/01/08 07:53:04;;;;;;;4.53;0.90;;;10.50;98.70;;;;;;5135670;27;20464;-60
2023/01/08 07:55:31;;;;;;;4.77;1.13;;;10.40;98.40;;;;;;5135557;27;20449;-60
2023/01/08 07:57:57;;;;;;;4.53;1.33;;;10.40;98.60;;;;;;5135199;27;21041;-60
2023/01/08 08:00:25;;;;;;;10.87;1.50;;;10.50;98.50;;;;;;5135508;27;20457;-60
2023/01/08 08:02:52;;;;;;;6.43;1.00;;;10.50;98.70;;;;;;5135495;27;20477;-60
2023/01/08 08:05:19;;;;;;;8.20;1.40;;;10.50;98.10;;;;;;5135017;27;20965;-60
2023/01/08 08:07:45;;;;;;;2.70;1.10;;;10.40;98.00;;;;;;5135289;27;20861;-60
2023/01/08 08:10:12;;;;;;;6.80;1.27;;;10.40;98.10;;;;;;5135181;27;20453;-60
2023/01/08 08:12:39;;;;;;;5.17;1.57;;;10.40;98.10;;;;;;5135105;27;20477;-60
2023/01/08 08:15:07;;;;;;;6.83;3.73;;;10.40;97.60;;;;;;5135163;27;20491;-60
2023/01/08 08:17:35;;;;;;;7.40;1.60;;;10.40;97.70;;;;;;5135063;27;20482;-60
2023/01/08 08:20:02;;;;;;;3.47;1.50;;;10.40;97.70;;;;;;5134753;27;20968;-60
2023/01/08 08:22:29;;;;;;;7.10;2.60;;;10.40;97.70;;;;;;5135044;27;20476;-60
2023/01/08 08:24:55;;;;;;;3.70;0.97;;;10.40;97.40;;;;;;5134910;27;20457;-60
2023/01/08 08:27:23;;;;;;;7.37;2.10;;;10.30;97.30;;;;;;5135000;27;20451;-60
2023/01/08 08:29:50;;;;;;;5.70;1.47;;;10.30;97.40;;;;;;5134918;27;20520;-60
2023/01/08 08:32:16;;;;;;;3.27;1.20;;;10.30;97.40;;;;;;5134767;27;20477;-60
2023/01/08 08:34:45;;;;;;;7.50;1.20;;;10.20;97.30;;;;;;5134358;27;20452;-60
2023/01/08 08:37:11;;;;;;;6.53;1.27;;;10.20;97.70;;;;;;5134741;27;20436;-60
2023/01/08 08:39:38;;;;;;;8.73;1.30;;;10.20;97.70;;;;;;5134351;27;20899;-60
2023/01/08 08:42:05;;;;;;;4.93;1.40;;;10.30;97.70;;;;;;5134420;27;20980;-60
2023/01/08 08:44:31;;;;;;;6.83;1.63;;;10.20;97.70;;;;;;5134630;27;20450;-60
2023/01/08 08:46:58;;;;;;;3.83;1.20;;;10.20;97.70;;;;;;5134564;27;20492;-60
2023/01/08 08:49:25;;;;;;;5.43;1.20;;;10.20;97.80;;;;;;5134292;27;20959;-60
2023/01/08 08:51:53;;;;;;;2.73;1.27;;;10.20;98.00;;;;;;5133927;27;20480;-60
2023/01/08 08:54:20;;;;;;;4.13;1.23;;;10.30;97.90;;;;;;5134250;27;20966;-60
2023/01/08 08:56:48;;;;;;;7.93;1.70;;;10.30;98.00;;;;;;5134381;27;20455;-60
2023/01/08 08:59:15;;;;;;;6.67;1.30;;;10.30;98.00;;;;;;5134412;27;20543;-60
2023/01/08 09:01:41;;;;;;;3.33;1.27;;;10.40;98.10;;;;;;5134390;27;20468;-60
2023/01/08 09:04:08;;;;;;;5.87;1.30;;;10.40;98.20;;;;;;5134403;27;20451;-60
2023/01/08 09:06:35;;;;;;;6.80;1.70;;;10.40;98.20;;;;;;5134111;28;20911;-60
2023/01/08 09:09:03;;;;;;;7.27;1.50;;;10.50;98.30;;;;;;5134413;28;20446;-60
2023/01/08 09:11:30;;;;;;;5.73;1.20;;;10.50;98.20;;;;;;5134328;28;20473;-60
2023/01/08 09:13:57;;;;;;;6.77;1.90;;;10.50;98.20;;;;;;5134423;28;20451;-60
2023/01/08 09:16:24;;;;;;;3.10;1.20;;;10.60;98.10;;;;;;5134410;28;20451;-60
2023/01/08 09:18:50;;;;;;;5.03;1.37;;;10.60;98.10;;;;;;5134044;28;21001;-60
2023/01/08 09:21:17;;;;;;;7.27;1.40;;;10.70;98.00;;;;;;5134218;28;20845;-60
2023/01/08 09:23:44;;;;;;;3.13;1.43;;;10.80;97.90;;;;;;5133950;28;20488;-60
2023/01/08 09:26:12;;;;;;;8.23;2.47;;;10.80;97.80;;;;;;5134134;28;20448;-60
2023/01/08 09:28:38;;;;;;;3.50;1.33;;;10.90;97.50;;;;;;5134203;28;20457;-59
2023/01/08 09:31:05;;;;;;;10.17;2.17;;;11.00;97.60;;;;;;5134639;28;20926;-60
2023/01/08 09:33:33;;;;;;;6.53;1.87;;;11.20;97.40;;;;;;5134287;28;20426;-60
2023/01/08 09:36:00;;;;;;;4.97;1.60;;;11.30;97.30;;;;;;5134261;28;20431;-60
2023/01/08 09:38:26;;;;;;;2.30;1.47;;;11.40;97.20;;;;;;5134731;28;20487;-60
2023/01/08 09:40:56;;;;;;;2.00;1.10;;;11.60;96.80;;;;;;5133737;28;20453;-60
2023/01/08 09:43:28;;;;;;;1.50;1.00;;;11.70;96.30;;;;;;5134159;28;20445;-60
2023/01/08 09:45:58;;;;;;;2.93;1.47;;;11.90;96.00;;;;;;5133931;28;20845;-60
2023/01/08 09:48:28;;;;;;;4.67;1.30;;;12.00;95.50;;;;;;5134137;28;20434;-60
2023/01/08 09:50:55;;;;;;;6.60;1.17;;;12.10;95.00;;;;;;5134082;28;20453;-60
2023/01/08 09:53:22;;;;;;;3.80;1.10;;;12.30;94.20;;;;;;5133995;28;20430;-60
2023/01/08 09:55:55;;;;;;;2.23;1.23;;;12.30;93.90;;;;;;5134066;28;20459;-60
2023/01/08 09:58:29;;;;;;;3.70;1.17;;;12.30;93.60;;;;;;5133938;28;20474;-60
2023/01/08 10:00:57;;;;;;;2.50;1.27;;;12.30;93.30;;;;;;5133945;28;20486;-60
2023/01/08 10:03:28;;;;;;;5.00;0.83;;;12.30;93.00;;;;;;5134682;27;20465;-60
2023/01/08 10:05:55;;;;;;;2.43;0.73;;;12.30;92.70;;;;;;5137880;27;20426;-60
2023/01/08 10:08:22;;;;;;;3.37;1.10;;;12.30;93.00;;;;;;5137597;27;20410;-60
2023/01/08 10:10:49;;;;;;;3.50;1.50;;;12.30;92.80;;;;;;5137826;27;20453;-59
2023/01/08 10:13:16;;;;;;;3.40;1.30;;;12.30;92.80;;;;;;5137584;27;20445;-60
2023/01/08 10:15:44;;;;;;;5.80;1.67;;;12.30;92.80;;;;;;5137597;27;20454;-60
2023/01/08 10:18:13;;;;;;;2.53;0.80;;;12.30;92.80;;;;;;5137826;27;20485;-60
2023/01/08 10:20:40;;;;;;;5.13;1.30;;;12.40;92.80;;;;;;5137570;27;20422;-61
2023/01/08 10:23:11;;;;;;;4.33;1.00;;;12.40;92.70;;;;;;5137379;27;20473;-61
2023/01/08 10:25:51;;;;;;;1.33;1.17;;;12.40;92.70;;;;;;5137640;27;20458;-60
2023/01/08 10:28:21;;;;;;;3.30;1.50;;;12.40;92.50;;;;;;5137703;27;20469;-59
2023/01/08 10:30:50;;;;;;;3.10;1.20;;;12.40;92.20;;;;;;5137948;27;20439;-60
2023/01/08 10:33:23;;;;;;;3.10;1.10;;;12.40;92.50;;;;;;5138008;27;20446;-60
2023/01/08 10:35:57;;;;;;;3.03;0.90;;;12.30;92.30;;;;;;5138071;27;20434;-60
2023/01/08 10:38:28;;;;;;;2.67;0.93;;;12.30;92.30;;;;;;5138418;27;20464;-59
2023/01/08 10:40:56;;;;;;;5.13;1.63;;;12.20;92.80;;;;;;5137680;27;20473;-59
2023/01/08 10:43:27;;;;;;;3.90;1.40;;;12.20;92.90;;;;;;5138920;27;20458;-60
2023/01/08 10:46:01;;;;;;;2.87;1.13;;;12.20;92.80;;;;;;5138382;27;20435;-60
2023/01/08 10:48:33;;;;;;;3.30;1.30;;;12.30;92.80;;;;;;5140085;27;20452;-60
2023/01/08 10:51:13;;;;;;;7.00;1.93;;;12.40;93.20;;;;;;5139497;27;20917;-59
2023/01/08 10:53:40;;;;;;;2.00;1.00;;;12.50;93.00;;;;;;5138347;27;20426;-60
2023/01/08 10:56:07;;;;;;;3.63;1.60;;;12.80;93.00;;;;;;5137690;27;20516;-60
2023/01/08 10:58:41;;;;;;;1.87;1.30;;;12.80;92.60;;;;;;5137692;27;20481;-59
2023/01/08 11:01:17;;;;;;;3.40;1.57;;;12.90;92.10;;;;;;5138202;27;20430;-59
2023/01/08 11:03:48;;;;;;;2.93;1.40;;;12.90;91.60;;;;;;5136994;27;20847;-59
2023/01/08 11:06:20;;;;;;;3.83;1.13;;;13.00;91.50;;;;;;5137381;27;20435;-60
2023/01/08 11:08:51;;;;;;;23.90;2.23;;;13.00;91.50;;;;;;5136846;27;20423;-60
2023/01/08 11:11:17;;;;;;;4.83;1.63;;;13.00;91.40;;;;;;5136494;27;20504;-61
2023/01/08 11:13:55;;;;;;;6.33;2.07;;;13.00;91.60;;;;;;5136683;27;20436;-60
2023/01/08 11:16:30;;;;;;;3.33;1.83;;;13.00;91.70;;;;;;5135319;27;20902;-60
2023/01/08 11:18:56;;;;;;;4.67;1.30;;;12.90;91.80;;;;;;5136301;27;20466;-59
2023/01/08 11:21:25;;;;;;;3.53;1.00;;;12.90;92.00;;;;;;5136181;27;20465;-59
2023/01/08 11:24:10;;;;;;;2.90;1.00;;;12.80;91.70;;;;;;5136228;27;20774;-60
2023/01/08 11:26:39;;;;;;;1.47;1.10;;;12.70;92.00;;;;;;5136210;27;20457;-60
2023/01/08 11:29:14;;;;;;;4.60;1.37;;;12.70;91.60;;;;;;5135859;27;20902;-59
2023/01/08 11:31:49;;;;;;;3.23;1.07;;;12.50;91.90;;;;;;5136065;27;20465;-59
2023/01/08 11:34:21;;;;;;;3.57;1.70;;;12.50;92.30;;;;;;5136023;27;20430;-59
2023/01/08 11:36:52;;;;;;;4.23;1.10;;;12.40;92.00;;;;;;5136024;27;20430;-60
2023/01/08 11:39:19;;;;;;;4.70;0.80;;;12.40;92.40;;;;;;5135925;27;20476;-59
2023/01/08 11:42:05;;;;;;;1.93;0.70;;;12.40;92.30;;;;;;5135937;27;20833;-61
2023/01/08 11:44:40;;;;;;;1.10;0.40;;;12.20;91.80;;;;;;5135861;27;20446;-61
2023/01/08 11:47:15;;;;;;;1.77;0.40;;;11.50;92.60;;;;;;5135879;27;20427;-60
2023/01/08 11:49:59;;;;;;;0.50;0.43;;;11.20;95.00;;;;;;5135746;27;20422;-60
2023/01/08 11:52:43;;;;;;;1.53;0.40;;;11.00;95.90;;;;;;5135606;27;20464;-60
2023/01/08 11:55:23;;;;;;;1.37;0.53;;;10.80;96.80;;;;;;5135588;27;20431;-60
2023/01/08 11:58:04;;;;;;;2.37;0.50;;;10.60;97.20;;;;;;5135268;27;20913;-60
2023/01/08 12:00:48;;;;;;;2.40;0.70;;;10.70;98.00;;;;;;5135460;27;20436;-61
2023/01/08 12:03:30;;;;;;;0.60;0.40;;;10.80;98.10;;;;;;5135230;27;20480;-61
2023/01/08 12:06:13;;;;;;;0.97;0.50;;;11.00;98.20;;;;;;5135048;27;20441;-60
2023/01/08 12:08:47;;;;;;;3.23;0.50;;;11.00;97.40;;;;;;5135288;27;20461;-60
2023/01/08 12:11:22;;;;;;;2.10;0.50;;;11.10;97.60;;;;;;5134834;27;20976;-61
2023/01/08 12:14:03;;;;;;;3.53;0.60;;;11.30;97.70;;;;;;5135043;27;20444;-60
2023/01/08 12:16:47;;;;;;;1.23;0.47;;;11.80;97.80;;;;;;5135077;27;20799;-61
2023/01/08 12:19:24;;;;;;;0.90;0.70;;;12.60;96.30;;;;;;5134779;27;20472;-61
2023/01/08 12:22:05;;;;;;;1.60;0.50;;;13.20;94.20;;;;;;5134913;27;20478;-62
2023/01/08 12:24:52;;;;;;;1.00;0.70;;;13.80;92.70;;;;;;5134996;27;20841;-61
2023/01/08 12:27:29;;;;;;;2.20;0.60;;;14.10;90.60;;;;;;5135074;27;20438;-61
2023/01/08 12:30:08;;;;;;;0.60;0.43;;;14.60;90.10;;;;;;5135039;27;20453;-61
2023/01/08 12:32:42;;;;;;;1.17;0.50;;;14.90;88.30;;;;;;5134564;27;20548;-61
2023/01/08 12:35:15;;;;;;;2.30;0.60;;;15.10;87.10;;;;;;5134880;27;20437;-61
2023/01/08 12:37:48;;;;;;;1.10;0.53;;;15.40;85.90;;;;;;5134586;27;20815;-61
2023/01/08 12:40:20;;;;;;;1.17;0.60;;;15.70;84.60;;;;;;5134659;27;20485;-61
2023/01/08 12:42:47;;;;;;;4.90;0.67;;;15.90;83.20;;;;;;5134514;27;20470;-61
2023/01/08 12:45:19;;;;;;;0.80;0.50;;;16.00;78.70;;;;;;5134781;27;20442;-61
2023/01/08 12:47:49;;;;;;;3.93;0.57;;;16.10;78.80;;;;;;5134733;27;20447;-61
2023/01/08 12:50:27;;;;;;;2.43;0.70;;;16.40;76.50;;;;;;5134809;27;20442;-61
2023/01/08 12:52:58;;;;;;;0.33;0.30;;;16.40;70.20;;;;;;5134610;27;20462;-61
2023/01/08 12:55:38;;;;;;;1.13;0.57;;;16.30;70.20;;;;;;5134331;27;20442;-61